sensor_id;sensor_type;location;lat;lon;timestamp;P1;durP1;ratioP1;P2;durP2;ratioP2
69401;SDS011;56589;51.992;5.924;2023-04-29T00:01:27;31.23;;;19.25;;
69401;SDS011;56589;51.992;5.924;2023-04-29T00:03:53;36.20;;;21.90;;
69401;SDS011;56589;51.992;5.924;2023-04-29T00:06:19;33.55;;;19.77;;
69401;SDS011;56589;51.992;5.924;2023-04-29T00:08:45;45.80;;;30.25;;
69401;SDS011;56589;51.992;5.924;2023-04-29T00:11:11;34.25;;;20.55;;
69401;SDS011;56589;51.992;5.924;2023-04-29T00:13:36;38.47;;;22.60;;
69401;SDS011;56589;51.992;5.924;2023-04-29T00:16:06;36.33;;;20.90;;
69401;SDS011;56589;51.992;5.924;2023-04-29T00:18:32;30.58;;;19.00;;
69401;SDS011;56589;51.992;5.924;2023-04-29T00:20:58;36.38;;;21.25;;
69401;SDS011;56589;51.992;5.924;2023-04-29T00:23:24;33.65;;;20.10;;
69401;SDS011;56589;51.992;5.924;2023-04-29T00:25:50;38.35;;;20.70;;
69401;SDS011;56589;51.992;5.924;2023-04-29T00:28:16;33.53;;;21.13;;
69401;SDS011;56589;51.992;5.924;2023-04-29T00:30:41;49.40;;;28.90;;
69401;SDS011;56589;51.992;5.924;2023-04-29T00:33:10;34.17;;;21.73;;
69401;SDS011;56589;51.992;5.924;2023-04-29T00:35:35;34.58;;;20.55;;
69401;SDS011;56589;51.992;5.924;2023-04-29T00:38:01;37.55;;;20.35;;
69401;SDS011;56589;51.992;5.924;2023-04-29T00:40:27;34.03;;;20.35;;
69401;SDS011;56589;51.992;5.924;2023-04-29T00:42:53;37.63;;;21.48;;
69401;SDS011;56589;51.992;5.924;2023-04-29T00:45:19;33.78;;;19.95;;
69401;SDS011;56589;51.992;5.924;2023-04-29T00:47:44;34.97;;;20.15;;
69401;SDS011;56589;51.992;5.924;2023-04-29T00:50:13;32.20;;;18.70;;
69401;SDS011;56589;51.992;5.924;2023-04-29T00:52:38;32.83;;;20.85;;
69401;SDS011;56589;51.992;5.924;2023-04-29T00:55:05;35.10;;;20.35;;
69401;SDS011;56589;51.992;5.924;2023-04-29T00:57:32;32.38;;;19.63;;
69401;SDS011;56589;51.992;5.924;2023-04-29T00:59:58;33.50;;;20.15;;
69401;SDS011;56589;51.992;5.924;2023-04-29T01:02:25;30.38;;;18.38;;
69401;SDS011;56589;51.992;5.924;2023-04-29T01:04:51;33.45;;;18.00;;
69401;SDS011;56589;51.992;5.924;2023-04-29T01:07:21;33.88;;;19.55;;
69401;SDS011;56589;51.992;5.924;2023-04-29T01:09:59;33.25;;;18.27;;
69401;SDS011;56589;51.992;5.924;2023-04-29T01:12:32;35.67;;;20.05;;
69401;SDS011;56589;51.992;5.924;2023-04-29T01:15:09;32.47;;;18.35;;
69401;SDS011;56589;51.992;5.924;2023-04-29T01:17:47;31.48;;;18.27;;
69401;SDS011;56589;51.992;5.924;2023-04-29T01:20:23;29.92;;;17.98;;
69401;SDS011;56589;51.992;5.924;2023-04-29T01:22:54;27.83;;;17.98;;
69401;SDS011;56589;51.992;5.924;2023-04-29T01:25:22;31.33;;;18.23;;
69401;SDS011;56589;51.992;5.924;2023-04-29T01:28:01;29.92;;;17.42;;
69401;SDS011;56589;51.992;5.924;2023-04-29T01:30:40;29.30;;;16.38;;
69401;SDS011;56589;51.992;5.924;2023-04-29T01:33:19;35.08;;;18.00;;
69401;SDS011;56589;51.992;5.924;2023-04-29T01:35:59;28.10;;;16.67;;
69401;SDS011;56589;51.992;5.924;2023-04-29T01:38:38;31.45;;;16.38;;
69401;SDS011;56589;51.992;5.924;2023-04-29T01:41:17;27.85;;;17.50;;
69401;SDS011;56589;51.992;5.924;2023-04-29T01:43:51;30.15;;;17.42;;
69401;SDS011;56589;51.992;5.924;2023-04-29T01:46:20;27.90;;;16.33;;
69401;SDS011;56589;51.992;5.924;2023-04-29T01:48:46;25.23;;;16.20;;
69401;SDS011;56589;51.992;5.924;2023-04-29T01:51:12;29.83;;;16.52;;
69401;SDS011;56589;51.992;5.924;2023-04-29T01:53:38;28.92;;;17.02;;
69401;SDS011;56589;51.992;5.924;2023-04-29T01:56:04;29.10;;;16.75;;
69401;SDS011;56589;51.992;5.924;2023-04-29T01:58:34;31.27;;;16.80;;
69401;SDS011;56589;51.992;5.924;2023-04-29T02:00:59;27.48;;;15.43;;
69401;SDS011;56589;51.992;5.924;2023-04-29T02:03:25;26.70;;;15.27;;
69401;SDS011;56589;51.992;5.924;2023-04-29T02:05:51;26.55;;;15.32;;
69401;SDS011;56589;51.992;5.924;2023-04-29T02:08:17;27.05;;;16.05;;
69401;SDS011;56589;51.992;5.924;2023-04-29T02:10:50;27.55;;;15.40;;
69401;SDS011;56589;51.992;5.924;2023-04-29T02:13:17;29.15;;;15.60;;
69401;SDS011;56589;51.992;5.924;2023-04-29T02:15:45;29.42;;;15.73;;
69401;SDS011;56589;51.992;5.924;2023-04-29T02:18:11;25.10;;;15.02;;
69401;SDS011;56589;51.992;5.924;2023-04-29T02:20:37;27.55;;;15.85;;
69401;SDS011;56589;51.992;5.924;2023-04-29T02:23:03;30.45;;;17.15;;
69401;SDS011;56589;51.992;5.924;2023-04-29T02:25:28;28.90;;;15.50;;
69401;SDS011;56589;51.992;5.924;2023-04-29T02:27:54;26.00;;;15.10;;
69401;SDS011;56589;51.992;5.924;2023-04-29T02:30:20;30.08;;;15.43;;
69401;SDS011;56589;51.992;5.924;2023-04-29T02:32:48;27.20;;;15.52;;
69401;SDS011;56589;51.992;5.924;2023-04-29T02:35:14;29.95;;;16.17;;
69401;SDS011;56589;51.992;5.924;2023-04-29T02:37:40;30.90;;;16.50;;
69401;SDS011;56589;51.992;5.924;2023-04-29T02:40:06;28.73;;;15.35;;
69401;SDS011;56589;51.992;5.924;2023-04-29T02:42:33;30.98;;;16.35;;
69401;SDS011;56589;51.992;5.924;2023-04-29T02:44:59;26.90;;;15.50;;
69401;SDS011;56589;51.992;5.924;2023-04-29T02:47:25;30.23;;;16.83;;
69401;SDS011;56589;51.992;5.924;2023-04-29T02:49:53;31.42;;;15.82;;
69401;SDS011;56589;51.992;5.924;2023-04-29T02:52:19;26.45;;;15.88;;
69401;SDS011;56589;51.992;5.924;2023-04-29T02:54:44;26.80;;;15.32;;
69401;SDS011;56589;51.992;5.924;2023-04-29T02:57:10;24.15;;;14.30;;
69401;SDS011;56589;51.992;5.924;2023-04-29T02:59:36;25.40;;;14.80;;
69401;SDS011;56589;51.992;5.924;2023-04-29T03:02:02;28.92;;;15.27;;
69401;SDS011;56589;51.992;5.924;2023-04-29T03:04:28;26.10;;;14.00;;
69401;SDS011;56589;51.992;5.924;2023-04-29T03:06:56;28.33;;;15.50;;
69401;SDS011;56589;51.992;5.924;2023-04-29T03:09:22;26.00;;;13.68;;
69401;SDS011;56589;51.992;5.924;2023-04-29T03:11:48;25.88;;;14.13;;
69401;SDS011;56589;51.992;5.924;2023-04-29T03:14:14;24.88;;;14.07;;
69401;SDS011;56589;51.992;5.924;2023-04-29T03:16:40;27.20;;;14.52;;
69401;SDS011;56589;51.992;5.924;2023-04-29T03:19:06;28.00;;;15.90;;
69401;SDS011;56589;51.992;5.924;2023-04-29T03:21:32;24.13;;;14.30;;
69401;SDS011;56589;51.992;5.924;2023-04-29T03:24:00;27.45;;;13.50;;
69401;SDS011;56589;51.992;5.924;2023-04-29T03:26:26;25.92;;;14.10;;
69401;SDS011;56589;51.992;5.924;2023-04-29T03:28:52;29.08;;;14.55;;
69401;SDS011;56589;51.992;5.924;2023-04-29T03:31:17;28.17;;;14.80;;
69401;SDS011;56589;51.992;5.924;2023-04-29T03:33:43;23.88;;;14.02;;
69401;SDS011;56589;51.992;5.924;2023-04-29T03:36:09;24.98;;;14.88;;
69401;SDS011;56589;51.992;5.924;2023-04-29T03:38:35;27.60;;;14.98;;
69401;SDS011;56589;51.992;5.924;2023-04-29T03:41:03;26.73;;;14.40;;
69401;SDS011;56589;51.992;5.924;2023-04-29T03:43:29;23.52;;;13.77;;
69401;SDS011;56589;51.992;5.924;2023-04-29T03:45:55;25.85;;;14.68;;
69401;SDS011;56589;51.992;5.924;2023-04-29T03:48:21;25.42;;;14.63;;
69401;SDS011;56589;51.992;5.924;2023-04-29T03:50:47;31.13;;;14.32;;
69401;SDS011;56589;51.992;5.924;2023-04-29T03:53:13;29.70;;;14.98;;
69401;SDS011;56589;51.992;5.924;2023-04-29T03:55:39;26.10;;;14.07;;
69401;SDS011;56589;51.992;5.924;2023-04-29T03:58:07;25.60;;;14.18;;
69401;SDS011;56589;51.992;5.924;2023-04-29T04:00:33;24.20;;;14.30;;
69401;SDS011;56589;51.992;5.924;2023-04-29T04:02:59;27.60;;;14.65;;
69401;SDS011;56589;51.992;5.924;2023-04-29T04:05:25;22.60;;;13.75;;
69401;SDS011;56589;51.992;5.924;2023-04-29T04:07:50;25.10;;;14.02;;
69401;SDS011;56589;51.992;5.924;2023-04-29T04:10:16;25.90;;;13.95;;
69401;SDS011;56589;51.992;5.924;2023-04-29T04:12:42;24.13;;;13.07;;
69401;SDS011;56589;51.992;5.924;2023-04-29T04:15:11;26.05;;;13.43;;
69401;SDS011;56589;51.992;5.924;2023-04-29T04:17:37;21.92;;;13.07;;
69401;SDS011;56589;51.992;5.924;2023-04-29T04:20:04;24.48;;;14.20;;
69401;SDS011;56589;51.992;5.924;2023-04-29T04:22:31;20.10;;;13.00;;
69401;SDS011;56589;51.992;5.924;2023-04-29T04:24:57;25.88;;;13.88;;
69401;SDS011;56589;51.992;5.924;2023-04-29T04:27:23;25.67;;;13.32;;
69401;SDS011;56589;51.992;5.924;2023-04-29T04:29:51;24.08;;;14.50;;
69401;SDS011;56589;51.992;5.924;2023-04-29T04:32:21;22.85;;;14.07;;
69401;SDS011;56589;51.992;5.924;2023-04-29T04:34:47;21.10;;;12.40;;
69401;SDS011;56589;51.992;5.924;2023-04-29T04:37:13;25.17;;;14.38;;
69401;SDS011;56589;51.992;5.924;2023-04-29T04:39:38;23.50;;;14.02;;
69401;SDS011;56589;51.992;5.924;2023-04-29T04:42:04;26.60;;;13.73;;
69401;SDS011;56589;51.992;5.924;2023-04-29T04:44:30;25.38;;;13.75;;
69401;SDS011;56589;51.992;5.924;2023-04-29T04:46:56;20.42;;;13.25;;
69401;SDS011;56589;51.992;5.924;2023-04-29T04:49:24;23.38;;;14.00;;
69401;SDS011;56589;51.992;5.924;2023-04-29T04:51:50;29.67;;;14.45;;
69401;SDS011;56589;51.992;5.924;2023-04-29T04:54:16;23.63;;;13.80;;
69401;SDS011;56589;51.992;5.924;2023-04-29T04:56:42;21.75;;;12.63;;
69401;SDS011;56589;51.992;5.924;2023-04-29T04:59:08;22.55;;;14.75;;
69401;SDS011;56589;51.992;5.924;2023-04-29T05:01:34;22.20;;;13.15;;
69401;SDS011;56589;51.992;5.924;2023-04-29T05:03:59;21.17;;;13.45;;
69401;SDS011;56589;51.992;5.924;2023-04-29T05:06:28;20.27;;;13.05;;
69401;SDS011;56589;51.992;5.924;2023-04-29T05:08:54;23.42;;;13.27;;
69401;SDS011;56589;51.992;5.924;2023-04-29T05:11:20;20.83;;;12.70;;
69401;SDS011;56589;51.992;5.924;2023-04-29T05:13:46;17.45;;;12.93;;
69401;SDS011;56589;51.992;5.924;2023-04-29T05:16:13;22.52;;;13.80;;
69401;SDS011;56589;51.992;5.924;2023-04-29T05:18:39;19.17;;;12.77;;
69401;SDS011;56589;51.992;5.924;2023-04-29T05:21:05;19.20;;;13.18;;
69401;SDS011;56589;51.992;5.924;2023-04-29T05:23:33;22.55;;;12.27;;
69401;SDS011;56589;51.992;5.924;2023-04-29T05:25:59;20.52;;;13.27;;
69401;SDS011;56589;51.992;5.924;2023-04-29T05:28:24;26.92;;;13.85;;
69401;SDS011;56589;51.992;5.924;2023-04-29T05:30:50;25.50;;;13.57;;
69401;SDS011;56589;51.992;5.924;2023-04-29T05:33:16;18.98;;;11.68;;
69401;SDS011;56589;51.992;5.924;2023-04-29T05:35:42;17.95;;;11.48;;
69401;SDS011;56589;51.992;5.924;2023-04-29T05:38:08;18.08;;;12.43;;
69401;SDS011;56589;51.992;5.924;2023-04-29T05:40:36;19.67;;;12.38;;
69401;SDS011;56589;51.992;5.924;2023-04-29T05:43:02;20.17;;;13.23;;
69401;SDS011;56589;51.992;5.924;2023-04-29T05:45:28;19.35;;;12.25;;
69401;SDS011;56589;51.992;5.924;2023-04-29T05:47:53;19.25;;;12.70;;
69401;SDS011;56589;51.992;5.924;2023-04-29T05:50:19;18.40;;;12.23;;
69401;SDS011;56589;51.992;5.924;2023-04-29T05:52:45;19.05;;;12.50;;
69401;SDS011;56589;51.992;5.924;2023-04-29T05:55:11;18.05;;;12.00;;
69401;SDS011;56589;51.992;5.924;2023-04-29T05:57:39;18.63;;;12.60;;
69401;SDS011;56589;51.992;5.924;2023-04-29T06:00:06;18.10;;;12.30;;
69401;SDS011;56589;51.992;5.924;2023-04-29T06:02:33;17.83;;;12.73;;
69401;SDS011;56589;51.992;5.924;2023-04-29T06:04:59;19.13;;;13.02;;
69401;SDS011;56589;51.992;5.924;2023-04-29T06:07:25;20.27;;;13.02;;
69401;SDS011;56589;51.992;5.924;2023-04-29T06:09:51;23.02;;;13.55;;
69401;SDS011;56589;51.992;5.924;2023-04-29T06:12:17;17.58;;;11.93;;
69401;SDS011;56589;51.992;5.924;2023-04-29T06:14:45;21.85;;;12.65;;
69401;SDS011;56589;51.992;5.924;2023-04-29T06:17:11;21.42;;;13.10;;
69401;SDS011;56589;51.992;5.924;2023-04-29T06:19:37;21.63;;;13.07;;
69401;SDS011;56589;51.992;5.924;2023-04-29T06:22:02;22.27;;;13.50;;
69401;SDS011;56589;51.992;5.924;2023-04-29T06:24:28;22.52;;;12.55;;
69401;SDS011;56589;51.992;5.924;2023-04-29T06:26:54;17.90;;;12.07;;
69401;SDS011;56589;51.992;5.924;2023-04-29T06:29:20;18.08;;;12.02;;
69401;SDS011;56589;51.992;5.924;2023-04-29T06:31:48;20.10;;;11.85;;
69401;SDS011;56589;51.992;5.924;2023-04-29T06:34:14;20.65;;;12.38;;
69401;SDS011;56589;51.992;5.924;2023-04-29T06:36:40;20.60;;;12.20;;
69401;SDS011;56589;51.992;5.924;2023-04-29T06:39:05;22.35;;;12.38;;
69401;SDS011;56589;51.992;5.924;2023-04-29T06:41:31;19.65;;;12.07;;
69401;SDS011;56589;51.992;5.924;2023-04-29T06:43:57;20.73;;;13.40;;
69401;SDS011;56589;51.992;5.924;2023-04-29T06:46:23;25.05;;;12.10;;
69401;SDS011;56589;51.992;5.924;2023-04-29T06:48:51;23.10;;;12.00;;
69401;SDS011;56589;51.992;5.924;2023-04-29T06:51:17;18.92;;;10.63;;
69401;SDS011;56589;51.992;5.924;2023-04-29T06:53:43;23.25;;;12.15;;
69401;SDS011;56589;51.992;5.924;2023-04-29T06:56:09;20.52;;;11.98;;
69401;SDS011;56589;51.992;5.924;2023-04-29T06:58:35;19.30;;;11.30;;
69401;SDS011;56589;51.992;5.924;2023-04-29T07:01:00;21.20;;;12.20;;
69401;SDS011;56589;51.992;5.924;2023-04-29T07:03:26;21.77;;;11.95;;
69401;SDS011;56589;51.992;5.924;2023-04-29T07:05:55;19.83;;;10.80;;
69401;SDS011;56589;51.992;5.924;2023-04-29T07:08:21;18.98;;;13.02;;
69401;SDS011;56589;51.992;5.924;2023-04-29T07:10:52;20.20;;;11.30;;
69401;SDS011;56589;51.992;5.924;2023-04-29T07:13:19;21.08;;;11.38;;
69401;SDS011;56589;51.992;5.924;2023-04-29T07:15:44;23.25;;;11.95;;
69401;SDS011;56589;51.992;5.924;2023-04-29T07:18:10;18.25;;;11.45;;
69401;SDS011;56589;51.992;5.924;2023-04-29T07:20:36;18.75;;;10.75;;
69401;SDS011;56589;51.992;5.924;2023-04-29T07:23:04;18.25;;;10.38;;
69401;SDS011;56589;51.992;5.924;2023-04-29T07:25:30;17.60;;;10.45;;
69401;SDS011;56589;51.992;5.924;2023-04-29T07:27:56;21.38;;;11.07;;
69401;SDS011;56589;51.992;5.924;2023-04-29T07:30:22;17.92;;;10.85;;
69401;SDS011;56589;51.992;5.924;2023-04-29T07:32:48;15.68;;;10.02;;
69401;SDS011;56589;51.992;5.924;2023-04-29T07:35:14;19.63;;;10.52;;
69401;SDS011;56589;51.992;5.924;2023-04-29T07:37:40;17.48;;;10.68;;
69401;SDS011;56589;51.992;5.924;2023-04-29T07:40:08;19.38;;;10.02;;
69401;SDS011;56589;51.992;5.924;2023-04-29T07:42:35;18.58;;;10.60;;
69401;SDS011;56589;51.992;5.924;2023-04-29T07:45:01;18.00;;;10.20;;
69401;SDS011;56589;51.992;5.924;2023-04-29T07:47:27;18.98;;;9.63;;
69401;SDS011;56589;51.992;5.924;2023-04-29T07:49:53;14.95;;;9.95;;
69401;SDS011;56589;51.992;5.924;2023-04-29T07:52:18;18.58;;;9.30;;
69401;SDS011;56589;51.992;5.924;2023-04-29T07:54:44;20.05;;;9.80;;
69401;SDS011;56589;51.992;5.924;2023-04-29T07:57:13;16.60;;;10.02;;
69401;SDS011;56589;51.992;5.924;2023-04-29T07:59:39;14.25;;;8.77;;
69401;SDS011;56589;51.992;5.924;2023-04-29T08:02:05;15.43;;;9.60;;
69401;SDS011;56589;51.992;5.924;2023-04-29T08:04:31;13.10;;;7.32;;
69401;SDS011;56589;51.992;5.924;2023-04-29T08:06:57;14.88;;;9.07;;
69401;SDS011;56589;51.992;5.924;2023-04-29T08:09:23;16.40;;;9.55;;
69401;SDS011;56589;51.992;5.924;2023-04-29T08:11:49;12.57;;;7.85;;
69401;SDS011;56589;51.992;5.924;2023-04-29T08:14:17;12.13;;;8.30;;
69401;SDS011;56589;51.992;5.924;2023-04-29T08:16:43;16.02;;;7.93;;
69401;SDS011;56589;51.992;5.924;2023-04-29T08:19:09;15.93;;;7.78;;
69401;SDS011;56589;51.992;5.924;2023-04-29T08:21:34;15.10;;;8.02;;
69401;SDS011;56589;51.992;5.924;2023-04-29T08:24:00;14.82;;;7.93;;
69401;SDS011;56589;51.992;5.924;2023-04-29T08:26:26;12.38;;;8.32;;
69401;SDS011;56589;51.992;5.924;2023-04-29T08:28:52;11.88;;;7.82;;
69401;SDS011;56589;51.992;5.924;2023-04-29T08:31:20;14.73;;;8.43;;
69401;SDS011;56589;51.992;5.924;2023-04-29T08:33:46;14.43;;;7.82;;
69401;SDS011;56589;51.992;5.924;2023-04-29T08:36:13;11.82;;;7.82;;
69401;SDS011;56589;51.992;5.924;2023-04-29T08:38:38;11.25;;;6.90;;
69401;SDS011;56589;51.992;5.924;2023-04-29T08:41:06;13.35;;;7.35;;
69401;SDS011;56589;51.992;5.924;2023-04-29T08:43:33;11.85;;;7.13;;
69401;SDS011;56589;51.992;5.924;2023-04-29T08:45:59;11.43;;;7.05;;
69401;SDS011;56589;51.992;5.924;2023-04-29T08:48:30;14.23;;;7.07;;
69401;SDS011;56589;51.992;5.924;2023-04-29T08:50:57;10.68;;;6.93;;
69401;SDS011;56589;51.992;5.924;2023-04-29T08:53:23;12.63;;;7.32;;
69401;SDS011;56589;51.992;5.924;2023-04-29T08:55:49;15.18;;;7.35;;
69401;SDS011;56589;51.992;5.924;2023-04-29T08:58:15;12.50;;;7.70;;
69401;SDS011;56589;51.992;5.924;2023-04-29T09:00:41;12.15;;;7.40;;
69401;SDS011;56589;51.992;5.924;2023-04-29T09:03:11;14.00;;;6.82;;
69401;SDS011;56589;51.992;5.924;2023-04-29T09:05:48;10.98;;;7.03;;
69401;SDS011;56589;51.992;5.924;2023-04-29T09:08:18;9.65;;;6.20;;
69401;SDS011;56589;51.992;5.924;2023-04-29T09:10:46;12.77;;;6.57;;
69401;SDS011;56589;51.992;5.924;2023-04-29T09:13:21;11.38;;;6.75;;
69401;SDS011;56589;51.992;5.924;2023-04-29T09:15:48;13.23;;;6.65;;
69401;SDS011;56589;51.992;5.924;2023-04-29T09:18:16;12.02;;;6.32;;
69401;SDS011;56589;51.992;5.924;2023-04-29T09:21:17;10.27;;;6.55;;
69401;SDS011;56589;51.992;5.924;2023-04-29T09:23:44;8.63;;;5.82;;
69401;SDS011;56589;51.992;5.924;2023-04-29T09:26:11;9.27;;;5.80;;
69401;SDS011;56589;51.992;5.924;2023-04-29T09:28:37;7.88;;;5.25;;
69401;SDS011;56589;51.992;5.924;2023-04-29T09:31:03;8.35;;;4.95;;
69401;SDS011;56589;51.992;5.924;2023-04-29T09:33:30;8.00;;;5.28;;
69401;SDS011;56589;51.992;5.924;2023-04-29T09:35:56;7.90;;;4.28;;
69401;SDS011;56589;51.992;5.924;2023-04-29T09:38:24;8.45;;;4.90;;
69401;SDS011;56589;51.992;5.924;2023-04-29T09:40:50;8.07;;;5.00;;
69401;SDS011;56589;51.992;5.924;2023-04-29T09:43:17;8.45;;;4.68;;
69401;SDS011;56589;51.992;5.924;2023-04-29T09:45:43;8.23;;;4.93;;
69401;SDS011;56589;51.992;5.924;2023-04-29T09:48:11;8.60;;;4.75;;
69401;SDS011;56589;51.992;5.924;2023-04-29T09:50:38;6.50;;;4.38;;
69401;SDS011;56589;51.992;5.924;2023-04-29T09:53:06;8.38;;;5.07;;
69401;SDS011;56589;51.992;5.924;2023-04-29T09:55:37;8.48;;;5.25;;
69401;SDS011;56589;51.992;5.924;2023-04-29T09:58:26;9.07;;;4.82;;
69401;SDS011;56589;51.992;5.924;2023-04-29T10:00:53;10.20;;;5.32;;
69401;SDS011;56589;51.992;5.924;2023-04-29T10:03:21;9.18;;;5.50;;
69401;SDS011;56589;51.992;5.924;2023-04-29T10:05:47;8.80;;;4.97;;
69401;SDS011;56589;51.992;5.924;2023-04-29T10:08:13;8.10;;;4.55;;
69401;SDS011;56589;51.992;5.924;2023-04-29T10:10:41;8.65;;;4.70;;
69401;SDS011;56589;51.992;5.924;2023-04-29T10:13:08;10.68;;;4.22;;
69401;SDS011;56589;51.992;5.924;2023-04-29T10:15:35;8.30;;;4.28;;
69401;SDS011;56589;51.992;5.924;2023-04-29T10:18:16;7.20;;;3.95;;
69401;SDS011;56589;51.992;5.924;2023-04-29T10:20:47;6.85;;;3.75;;
69401;SDS011;56589;51.992;5.924;2023-04-29T10:23:16;6.45;;;3.88;;
69401;SDS011;56589;51.992;5.924;2023-04-29T10:25:47;6.30;;;3.90;;
69401;SDS011;56589;51.992;5.924;2023-04-29T10:28:18;7.15;;;4.13;;
69401;SDS011;56589;51.992;5.924;2023-04-29T10:30:49;6.28;;;3.78;;
69401;SDS011;56589;51.992;5.924;2023-04-29T10:33:15;5.72;;;4.05;;
69401;SDS011;56589;51.992;5.924;2023-04-29T10:35:43;8.40;;;3.88;;
69401;SDS011;56589;51.992;5.924;2023-04-29T10:38:10;7.05;;;3.67;;
69401;SDS011;56589;51.992;5.924;2023-04-29T10:40:48;7.28;;;3.70;;
69401;SDS011;56589;51.992;5.924;2023-04-29T10:43:21;9.07;;;3.88;;
69401;SDS011;56589;51.992;5.924;2023-04-29T10:45:48;5.00;;;3.40;;
69401;SDS011;56589;51.992;5.924;2023-04-29T10:48:14;7.57;;;3.65;;
69401;SDS011;56589;51.992;5.924;2023-04-29T10:50:59;7.70;;;4.00;;
69401;SDS011;56589;51.992;5.924;2023-04-29T10:53:26;9.05;;;3.55;;
69401;SDS011;56589;51.992;5.924;2023-04-29T10:55:55;5.78;;;3.67;;
69401;SDS011;56589;51.992;5.924;2023-04-29T10:58:35;5.60;;;3.40;;
69401;SDS011;56589;51.992;5.924;2023-04-29T11:01:03;7.70;;;3.40;;
69401;SDS011;56589;51.992;5.924;2023-04-29T11:06:18;5.25;;;3.67;;
69401;SDS011;56589;51.992;5.924;2023-04-29T11:08:46;7.07;;;3.83;;
69401;SDS011;56589;51.992;5.924;2023-04-29T11:11:14;5.13;;;3.00;;
69401;SDS011;56589;51.992;5.924;2023-04-29T11:13:40;4.88;;;3.78;;
69401;SDS011;56589;51.992;5.924;2023-04-29T11:16:11;6.93;;;3.63;;
69401;SDS011;56589;51.992;5.924;2023-04-29T11:21:32;7.78;;;3.47;;
69401;SDS011;56589;51.992;5.924;2023-04-29T11:23:59;6.25;;;3.40;;
69401;SDS011;56589;51.992;5.924;2023-04-29T11:26:28;5.00;;;3.00;;
69401;SDS011;56589;51.992;5.924;2023-04-29T11:28:54;7.07;;;3.45;;
69401;SDS011;56589;51.992;5.924;2023-04-29T11:31:24;7.65;;;3.70;;
69401;SDS011;56589;51.992;5.924;2023-04-29T11:33:51;6.68;;;3.53;;
69401;SDS011;56589;51.992;5.924;2023-04-29T11:36:17;6.43;;;3.60;;
69401;SDS011;56589;51.992;5.924;2023-04-29T11:38:43;4.80;;;2.83;;
69401;SDS011;56589;51.992;5.924;2023-04-29T11:41:10;4.85;;;3.00;;
69401;SDS011;56589;51.992;5.924;2023-04-29T11:43:38;5.95;;;3.47;;
69401;SDS011;56589;51.992;5.924;2023-04-29T11:46:10;6.88;;;3.10;;
69401;SDS011;56589;51.992;5.924;2023-04-29T11:48:36;5.63;;;3.30;;
69401;SDS011;56589;51.992;5.924;2023-04-29T11:51:10;6.15;;;3.40;;
69401;SDS011;56589;51.992;5.924;2023-04-29T11:53:36;4.28;;;2.60;;
69401;SDS011;56589;51.992;5.924;2023-04-29T11:56:02;3.70;;;2.10;;
69401;SDS011;56589;51.992;5.924;2023-04-29T11:58:28;2.70;;;2.30;;
69401;SDS011;56589;51.992;5.924;2023-04-29T12:00:57;3.72;;;2.50;;
69401;SDS011;56589;51.992;5.924;2023-04-29T12:03:23;4.13;;;2.22;;
69401;SDS011;56589;51.992;5.924;2023-04-29T12:05:50;3.60;;;2.60;;
69401;SDS011;56589;51.992;5.924;2023-04-29T12:08:18;7.90;;;3.00;;
69401;SDS011;56589;51.992;5.924;2023-04-29T12:10:44;6.75;;;3.25;;
69401;SDS011;56589;51.992;5.924;2023-04-29T12:13:11;5.07;;;2.95;;
69401;SDS011;56589;51.992;5.924;2023-04-29T12:15:37;5.75;;;3.20;;
69401;SDS011;56589;51.992;5.924;2023-04-29T12:18:06;7.05;;;2.67;;
69401;SDS011;56589;51.992;5.924;2023-04-29T12:20:33;5.22;;;3.15;;
69401;SDS011;56589;51.992;5.924;2023-04-29T12:23:09;4.53;;;2.88;;
69401;SDS011;56589;51.992;5.924;2023-04-29T12:25:36;4.88;;;2.60;;
69401;SDS011;56589;51.992;5.924;2023-04-29T12:28:02;5.30;;;2.50;;
69401;SDS011;56589;51.992;5.924;2023-04-29T12:30:29;5.60;;;2.90;;
69401;SDS011;56589;51.992;5.924;2023-04-29T12:32:54;3.85;;;2.67;;
69401;SDS011;56589;51.992;5.924;2023-04-29T12:35:23;3.78;;;2.35;;
69401;SDS011;56589;51.992;5.924;2023-04-29T12:37:49;4.63;;;2.55;;
69401;SDS011;56589;51.992;5.924;2023-04-29T12:40:15;5.15;;;2.92;;
69401;SDS011;56589;51.992;5.924;2023-04-29T12:42:41;5.30;;;2.30;;
69401;SDS011;56589;51.992;5.924;2023-04-29T12:45:08;4.38;;;2.60;;
69401;SDS011;56589;51.992;5.924;2023-04-29T12:47:50;5.53;;;2.70;;
69401;SDS011;56589;51.992;5.924;2023-04-29T12:50:16;4.45;;;2.65;;
69401;SDS011;56589;51.992;5.924;2023-04-29T12:52:44;6.05;;;2.97;;
69401;SDS011;56589;51.992;5.924;2023-04-29T12:55:10;5.70;;;2.28;;
69401;SDS011;56589;51.992;5.924;2023-04-29T12:57:36;4.55;;;2.53;;
69401;SDS011;56589;51.992;5.924;2023-04-29T13:00:02;6.60;;;2.92;;
69401;SDS011;56589;51.992;5.924;2023-04-29T13:02:29;6.07;;;2.00;;
69401;SDS011;56589;51.992;5.924;2023-04-29T13:04:55;4.97;;;2.20;;
69401;SDS011;56589;51.992;5.924;2023-04-29T13:07:20;5.40;;;2.17;;
69401;SDS011;56589;51.992;5.924;2023-04-29T13:09:49;5.30;;;3.03;;
69401;SDS011;56589;51.992;5.924;2023-04-29T13:12:14;6.28;;;3.25;;
69401;SDS011;56589;51.992;5.924;2023-04-29T13:14:40;3.55;;;2.30;;
69401;SDS011;56589;51.992;5.924;2023-04-29T13:17:06;4.68;;;2.40;;
69401;SDS011;56589;51.992;5.924;2023-04-29T13:19:32;4.10;;;2.70;;
69401;SDS011;56589;51.992;5.924;2023-04-29T13:21:57;4.80;;;2.00;;
69401;SDS011;56589;51.992;5.924;2023-04-29T13:24:23;3.22;;;1.73;;
69401;SDS011;56589;51.992;5.924;2023-04-29T13:26:52;3.67;;;1.70;;
69401;SDS011;56589;51.992;5.924;2023-04-29T13:29:17;2.47;;;1.92;;
69401;SDS011;56589;51.992;5.924;2023-04-29T13:31:43;4.63;;;2.30;;
69401;SDS011;56589;51.992;5.924;2023-04-29T13:34:09;2.33;;;1.67;;
69401;SDS011;56589;51.992;5.924;2023-04-29T13:36:35;4.05;;;1.80;;
69401;SDS011;56589;51.992;5.924;2023-04-29T13:39:01;2.50;;;1.60;;
69401;SDS011;56589;51.992;5.924;2023-04-29T13:41:26;2.88;;;1.70;;
69401;SDS011;56589;51.992;5.924;2023-04-29T13:43:55;2.78;;;1.77;;
69401;SDS011;56589;51.992;5.924;2023-04-29T13:46:21;4.10;;;1.58;;
69401;SDS011;56589;51.992;5.924;2023-04-29T13:48:46;5.25;;;1.77;;
69401;SDS011;56589;51.992;5.924;2023-04-29T13:51:12;3.50;;;1.65;;
69401;SDS011;56589;51.992;5.924;2023-04-29T13:53:38;3.00;;;1.70;;
69401;SDS011;56589;51.992;5.924;2023-04-29T13:56:04;3.53;;;1.40;;
69401;SDS011;56589;51.992;5.924;2023-04-29T13:58:31;2.45;;;1.20;;
69401;SDS011;56589;51.992;5.924;2023-04-29T14:00:59;2.78;;;1.80;;
69401;SDS011;56589;51.992;5.924;2023-04-29T14:03:25;3.13;;;1.50;;
69401;SDS011;56589;51.992;5.924;2023-04-29T14:05:51;4.88;;;1.90;;
69401;SDS011;56589;51.992;5.924;2023-04-29T14:08:17;2.70;;;1.67;;
69401;SDS011;56589;51.992;5.924;2023-04-29T14:10:42;4.38;;;1.65;;
69401;SDS011;56589;51.992;5.924;2023-04-29T14:13:08;4.32;;;1.85;;
69401;SDS011;56589;51.992;5.924;2023-04-29T14:15:34;4.45;;;1.50;;
69401;SDS011;56589;51.992;5.924;2023-04-29T14:18:02;3.50;;;1.73;;
69401;SDS011;56589;51.992;5.924;2023-04-29T14:20:28;4.17;;;1.77;;
69401;SDS011;56589;51.992;5.924;2023-04-29T14:22:54;3.42;;;1.80;;
69401;SDS011;56589;51.992;5.924;2023-04-29T14:25:20;3.28;;;1.60;;
69401;SDS011;56589;51.992;5.924;2023-04-29T14:27:46;4.20;;;1.90;;
69401;SDS011;56589;51.992;5.924;2023-04-29T14:30:12;3.20;;;1.70;;
69401;SDS011;56589;51.992;5.924;2023-04-29T14:32:38;3.35;;;1.40;;
69401;SDS011;56589;51.992;5.924;2023-04-29T14:35:07;1.35;;;1.25;;
69401;SDS011;56589;51.992;5.924;2023-04-29T14:37:33;2.38;;;1.58;;
69401;SDS011;56589;51.992;5.924;2023-04-29T14:39:59;5.55;;;2.50;;